sensor_id;sensor_type;location;lat;lon;timestamp;P1;durP1;ratioP1;P2;durP2;ratioP2
3347;SDS011;1687;49.540;8.574;2023-01-08T00:02:17;11.27;;;4.63;;
3347;SDS011;1687;49.540;8.574;2023-01-08T00:04:42;9.47;;;4.53;;
3347;SDS011;1687;49.540;8.574;2023-01-08T00:07:08;10.00;;;4.27;;
3347;SDS011;1687;49.540;8.574;2023-01-08T00:09:34;9.30;;;4.97;;
3347;SDS011;1687;49.540;8.574;2023-01-08T00:12:00;12.50;;;5.00;;
3347;SDS011;1687;49.540;8.574;2023-01-08T00:14:25;10.13;;;4.80;;
3347;SDS011;1687;49.540;8.574;2023-01-08T00:16:51;8.80;;;4.17;;
3347;SDS011;1687;49.540;8.574;2023-01-08T00:19:17;7.77;;;4.40;;
3347;SDS011;1687;49.540;8.574;2023-01-08T00:21:43;10.90;;;4.57;;
3347;SDS011;1687;49.540;8.574;2023-01-08T00:24:09;7.43;;;4.57;;
3347;SDS011;1687;49.540;8.574;2023-01-08T00:26:34;16.93;;;4.70;;
3347;SDS011;1687;49.540;8.574;2023-01-08T00:29:00;13.30;;;6.47;;
3347;SDS011;1687;49.540;8.574;2023-01-08T00:31:26;10.40;;;4.77;;
3347;SDS011;1687;49.540;8.574;2023-01-08T00:33:52;7.53;;;3.97;;
3347;SDS011;1687;49.540;8.574;2023-01-08T00:36:18;10.03;;;4.53;;
3347;SDS011;1687;49.540;8.574;2023-01-08T00:38:44;8.07;;;4.60;;
3347;SDS011;1687;49.540;8.574;2023-01-08T00:41:11;12.50;;;5.17;;
3347;SDS011;1687;49.540;8.574;2023-01-08T00:43:38;11.63;;;5.40;;
3347;SDS011;1687;49.540;8.574;2023-01-08T00:46:04;9.33;;;4.13;;
3347;SDS011;1687;49.540;8.574;2023-01-08T00:48:31;10.93;;;3.50;;
3347;SDS011;1687;49.540;8.574;2023-01-08T00:51:03;8.17;;;3.93;;
3347;SDS011;1687;49.540;8.574;2023-01-08T00:53:31;10.70;;;5.10;;
3347;SDS011;1687;49.540;8.574;2023-01-08T00:56:01;10.20;;;5.80;;
3347;SDS011;1687;49.540;8.574;2023-01-08T00:58:30;8.80;;;4.37;;
3347;SDS011;1687;49.540;8.574;2023-01-08T01:00:56;9.07;;;4.50;;
3347;SDS011;1687;49.540;8.574;2023-01-08T01:03:21;8.80;;;4.40;;
3347;SDS011;1687;49.540;8.574;2023-01-08T01:05:47;5.60;;;3.70;;
3347;SDS011;1687;49.540;8.574;2023-01-08T01:08:14;7.87;;;4.50;;
3347;SDS011;1687;49.540;8.574;2023-01-08T01:10:40;7.10;;;4.50;;
3347;SDS011;1687;49.540;8.574;2023-01-08T01:13:05;11.27;;;3.73;;
3347;SDS011;1687;49.540;8.574;2023-01-08T01:15:31;9.70;;;3.53;;
3347;SDS011;1687;49.540;8.574;2023-01-08T01:17:57;6.80;;;3.80;;
3347;SDS011;1687;49.540;8.574;2023-01-08T01:20:22;13.93;;;4.70;;
3347;SDS011;1687;49.540;8.574;2023-01-08T01:22:49;11.87;;;5.30;;
3347;SDS011;1687;49.540;8.574;2023-01-08T01:25:15;7.60;;;3.80;;
3347;SDS011;1687;49.540;8.574;2023-01-08T01:27:41;8.90;;;4.00;;
3347;SDS011;1687;49.540;8.574;2023-01-08T01:30:07;5.93;;;3.60;;
3347;SDS011;1687;49.540;8.574;2023-01-08T01:32:33;9.10;;;3.73;;
3347;SDS011;1687;49.540;8.574;2023-01-08T01:34:59;6.40;;;3.30;;
3347;SDS011;1687;49.540;8.574;2023-01-08T01:37:25;8.40;;;4.53;;
3347;SDS011;1687;49.540;8.574;2023-01-08T01:39:51;6.37;;;3.50;;
3347;SDS011;1687;49.540;8.574;2023-01-08T01:42:18;8.50;;;4.03;;
3347;SDS011;1687;49.540;8.574;2023-01-08T01:45:04;8.43;;;2.93;;
3347;SDS011;1687;49.540;8.574;2023-01-08T01:47:59;9.97;;;4.60;;
3347;SDS011;1687;49.540;8.574;2023-01-08T01:53:20;9.47;;;4.27;;
3347;SDS011;1687;49.540;8.574;2023-01-08T01:55:55;8.67;;;4.50;;
3347;SDS011;1687;49.540;8.574;2023-01-08T01:58:23;8.03;;;4.10;;
3347;SDS011;1687;49.540;8.574;2023-01-08T02:00:52;7.67;;;4.83;;
3347;SDS011;1687;49.540;8.574;2023-01-08T02:03:21;8.53;;;5.50;;
3347;SDS011;1687;49.540;8.574;2023-01-08T02:05:53;12.30;;;4.87;;
3347;SDS011;1687;49.540;8.574;2023-01-08T02:17:57;11.13;;;5.33;;
3347;SDS011;1687;49.540;8.574;2023-01-08T02:20:36;16.53;;;7.80;;
3347;SDS011;1687;49.540;8.574;2023-01-08T02:26:25;24.40;;;8.57;;
3347;SDS011;1687;49.540;8.574;2023-01-08T02:31:32;20.37;;;6.60;;
3347;SDS011;1687;49.540;8.574;2023-01-08T02:34:01;9.43;;;4.23;;
3347;SDS011;1687;49.540;8.574;2023-01-08T02:45:20;9.83;;;4.33;;
3347;SDS011;1687;49.540;8.574;2023-01-08T02:53:41;8.47;;;4.60;;
3347;SDS011;1687;49.540;8.574;2023-01-08T02:56:12;5.40;;;3.37;;
3347;SDS011;1687;49.540;8.574;2023-01-08T02:58:41;9.57;;;3.70;;
3347;SDS011;1687;49.540;8.574;2023-01-08T03:01:09;8.43;;;3.67;;
3347;SDS011;1687;49.540;8.574;2023-01-08T03:03:38;6.37;;;2.67;;
3347;SDS011;1687;49.540;8.574;2023-01-08T03:06:07;7.50;;;3.83;;
3347;SDS011;1687;49.540;8.574;2023-01-08T03:08:37;9.80;;;3.50;;
3347;SDS011;1687;49.540;8.574;2023-01-08T03:11:07;6.97;;;3.60;;
3347;SDS011;1687;49.540;8.574;2023-01-08T03:16:16;8.70;;;3.80;;
3347;SDS011;1687;49.540;8.574;2023-01-08T03:19:14;10.10;;;4.40;;
3347;SDS011;1687;49.540;8.574;2023-01-08T03:22:14;7.80;;;4.30;;
3347;SDS011;1687;49.540;8.574;2023-01-08T03:24:41;10.73;;;3.57;;
3347;SDS011;1687;49.540;8.574;2023-01-08T03:27:12;9.90;;;3.80;;
3347;SDS011;1687;49.540;8.574;2023-01-08T03:29:45;6.83;;;3.90;;
3347;SDS011;1687;49.540;8.574;2023-01-08T03:32:14;11.20;;;4.93;;
3347;SDS011;1687;49.540;8.574;2023-01-08T03:34:42;7.83;;;4.00;;
3347;SDS011;1687;49.540;8.574;2023-01-08T03:37:09;9.07;;;5.00;;
3347;SDS011;1687;49.540;8.574;2023-01-08T03:39:39;6.53;;;4.07;;
3347;SDS011;1687;49.540;8.574;2023-01-08T03:42:14;12.73;;;4.13;;
3347;SDS011;1687;49.540;8.574;2023-01-08T03:44:41;11.93;;;4.17;;
3347;SDS011;1687;49.540;8.574;2023-01-08T03:47:07;8.77;;;4.40;;
3347;SDS011;1687;49.540;8.574;2023-01-08T03:49:35;9.60;;;4.47;;
3347;SDS011;1687;49.540;8.574;2023-01-08T03:52:03;11.97;;;4.60;;
3347;SDS011;1687;49.540;8.574;2023-01-08T03:54:29;5.70;;;3.57;;
3347;SDS011;1687;49.540;8.574;2023-01-08T03:56:56;9.60;;;4.90;;
3347;SDS011;1687;49.540;8.574;2023-01-08T03:59:22;10.10;;;4.47;;
3347;SDS011;1687;49.540;8.574;2023-01-08T04:01:48;8.40;;;3.87;;
3347;SDS011;1687;49.540;8.574;2023-01-08T04:04:14;10.73;;;4.67;;
3347;SDS011;1687;49.540;8.574;2023-01-08T04:06:41;5.63;;;2.97;;
3347;SDS011;1687;49.540;8.574;2023-01-08T04:09:07;7.23;;;4.00;;
3347;SDS011;1687;49.540;8.574;2023-01-08T04:11:33;7.07;;;3.87;;
3347;SDS011;1687;49.540;8.574;2023-01-08T04:13:59;6.47;;;3.63;;
3347;SDS011;1687;49.540;8.574;2023-01-08T04:16:24;8.23;;;3.13;;
3347;SDS011;1687;49.540;8.574;2023-01-08T04:18:50;7.77;;;3.60;;
3347;SDS011;1687;49.540;8.574;2023-01-08T04:21:16;8.87;;;4.13;;
3347;SDS011;1687;49.540;8.574;2023-01-08T04:23:41;7.93;;;3.80;;
3347;SDS011;1687;49.540;8.574;2023-01-08T04:26:07;13.13;;;3.37;;
3347;SDS011;1687;49.540;8.574;2023-01-08T04:28:34;9.00;;;3.63;;
3347;SDS011;1687;49.540;8.574;2023-01-08T04:31:03;11.30;;;3.60;;
3347;SDS011;1687;49.540;8.574;2023-01-08T04:33:31;8.13;;;3.90;;
3347;SDS011;1687;49.540;8.574;2023-01-08T04:35:57;10.30;;;4.23;;
3347;SDS011;1687;49.540;8.574;2023-01-08T04:38:22;7.87;;;3.27;;
3347;SDS011;1687;49.540;8.574;2023-01-08T04:40:48;7.47;;;3.90;;
3347;SDS011;1687;49.540;8.574;2023-01-08T04:43:13;8.17;;;3.60;;
3347;SDS011;1687;49.540;8.574;2023-01-08T04:45:39;6.30;;;3.70;;
3347;SDS011;1687;49.540;8.574;2023-01-08T04:48:05;7.77;;;3.43;;
3347;SDS011;1687;49.540;8.574;2023-01-08T04:50:31;5.30;;;3.50;;
3347;SDS011;1687;49.540;8.574;2023-01-08T04:52:57;6.97;;;4.00;;
3347;SDS011;1687;49.540;8.574;2023-01-08T04:55:24;5.80;;;2.53;;
3347;SDS011;1687;49.540;8.574;2023-01-08T04:57:49;8.40;;;4.10;;
3347;SDS011;1687;49.540;8.574;2023-01-08T05:00:15;11.53;;;4.53;;
3347;SDS011;1687;49.540;8.574;2023-01-08T05:02:41;6.10;;;3.90;;
3347;SDS011;1687;49.540;8.574;2023-01-08T05:05:07;8.13;;;4.60;;
3347;SDS011;1687;49.540;8.574;2023-01-08T05:07:33;11.53;;;4.43;;
3347;SDS011;1687;49.540;8.574;2023-01-08T05:09:58;9.83;;;3.63;;
3347;SDS011;1687;49.540;8.574;2023-01-08T05:12:24;7.73;;;3.60;;
3347;SDS011;1687;49.540;8.574;2023-01-08T05:14:49;9.60;;;4.37;;
3347;SDS011;1687;49.540;8.574;2023-01-08T05:17:15;10.03;;;3.43;;
3347;SDS011;1687;49.540;8.574;2023-01-08T05:19:41;7.87;;;4.37;;
3347;SDS011;1687;49.540;8.574;2023-01-08T05:22:07;8.40;;;3.17;;
3347;SDS011;1687;49.540;8.574;2023-01-08T05:24:32;8.57;;;3.30;;
3347;SDS011;1687;49.540;8.574;2023-01-08T05:26:58;7.27;;;3.87;;
3347;SDS011;1687;49.540;8.574;2023-01-08T05:29:24;5.40;;;3.30;;
3347;SDS011;1687;49.540;8.574;2023-01-08T05:31:49;8.63;;;3.27;;
3347;SDS011;1687;49.540;8.574;2023-01-08T05:34:15;6.40;;;3.17;;
3347;SDS011;1687;49.540;8.574;2023-01-08T05:36:40;7.93;;;3.17;;
3347;SDS011;1687;49.540;8.574;2023-01-08T05:39:07;8.53;;;3.23;;
3347;SDS011;1687;49.540;8.574;2023-01-08T05:41:32;6.70;;;3.07;;
3347;SDS011;1687;49.540;8.574;2023-01-08T05:43:59;15.80;;;2.90;;
3347;SDS011;1687;49.540;8.574;2023-01-08T05:46:25;5.90;;;3.33;;
3347;SDS011;1687;49.540;8.574;2023-01-08T05:48:50;3.97;;;2.90;;
3347;SDS011;1687;49.540;8.574;2023-01-08T05:51:16;5.80;;;2.63;;
3347;SDS011;1687;49.540;8.574;2023-01-08T05:53:41;7.80;;;3.80;;
3347;SDS011;1687;49.540;8.574;2023-01-08T05:56:09;7.53;;;3.03;;
3347;SDS011;1687;49.540;8.574;2023-01-08T05:58:36;8.87;;;3.87;;
3347;SDS011;1687;49.540;8.574;2023-01-08T06:01:12;7.00;;;3.40;;
3347;SDS011;1687;49.540;8.574;2023-01-08T06:03:41;7.60;;;3.90;;
3347;SDS011;1687;49.540;8.574;2023-01-08T06:06:07;6.10;;;3.20;;
3347;SDS011;1687;49.540;8.574;2023-01-08T06:08:35;9.67;;;3.47;;
3347;SDS011;1687;49.540;8.574;2023-01-08T06:11:01;8.00;;;2.70;;
3347;SDS011;1687;49.540;8.574;2023-01-08T06:13:32;6.60;;;3.50;;
3347;SDS011;1687;49.540;8.574;2023-01-08T06:15:59;5.57;;;3.83;;
3347;SDS011;1687;49.540;8.574;2023-01-08T06:18:26;7.03;;;3.60;;
3347;SDS011;1687;49.540;8.574;2023-01-08T06:20:52;8.10;;;2.80;;
3347;SDS011;1687;49.540;8.574;2023-01-08T06:23:18;6.90;;;3.13;;
3347;SDS011;1687;49.540;8.574;2023-01-08T06:25:50;4.57;;;2.20;;
3347;SDS011;1687;49.540;8.574;2023-01-08T06:28:20;7.87;;;2.80;;
3347;SDS011;1687;49.540;8.574;2023-01-08T06:30:46;8.47;;;3.57;;
3347;SDS011;1687;49.540;8.574;2023-01-08T06:33:12;6.30;;;3.37;;
3347;SDS011;1687;49.540;8.574;2023-01-08T06:35:38;5.93;;;2.87;;
3347;SDS011;1687;49.540;8.574;2023-01-08T06:38:04;5.87;;;4.10;;
3347;SDS011;1687;49.540;8.574;2023-01-08T06:40:30;12.33;;;3.30;;
3347;SDS011;1687;49.540;8.574;2023-01-08T06:42:59;6.33;;;3.70;;
3347;SDS011;1687;49.540;8.574;2023-01-08T06:45:27;5.27;;;2.90;;
3347;SDS011;1687;49.540;8.574;2023-01-08T06:47:52;9.20;;;4.80;;
3347;SDS011;1687;49.540;8.574;2023-01-08T06:50:18;4.07;;;2.73;;
3347;SDS011;1687;49.540;8.574;2023-01-08T06:52:50;7.83;;;3.80;;
3347;SDS011;1687;49.540;8.574;2023-01-08T06:55:18;7.50;;;3.13;;
3347;SDS011;1687;49.540;8.574;2023-01-08T06:57:44;9.43;;;3.50;;
3347;SDS011;1687;49.540;8.574;2023-01-08T07:00:10;6.33;;;3.53;;
3347;SDS011;1687;49.540;8.574;2023-01-08T07:02:36;5.83;;;3.53;;
3347;SDS011;1687;49.540;8.574;2023-01-08T07:05:02;8.33;;;3.03;;
3347;SDS011;1687;49.540;8.574;2023-01-08T07:07:28;8.23;;;3.53;;
3347;SDS011;1687;49.540;8.574;2023-01-08T07:09:54;5.27;;;2.67;;
3347;SDS011;1687;49.540;8.574;2023-01-08T07:12:20;5.67;;;3.53;;
3347;SDS011;1687;49.540;8.574;2023-01-08T07:14:45;5.97;;;2.97;;
3347;SDS011;1687;49.540;8.574;2023-01-08T07:17:11;7.37;;;3.87;;
3347;SDS011;1687;49.540;8.574;2023-01-08T07:19:37;10.20;;;3.33;;
3347;SDS011;1687;49.540;8.574;2023-01-08T07:22:02;10.97;;;4.30;;
3347;SDS011;1687;49.540;8.574;2023-01-08T07:24:28;5.20;;;3.20;;
3347;SDS011;1687;49.540;8.574;2023-01-08T07:26:54;4.67;;;3.27;;
3347;SDS011;1687;49.540;8.574;2023-01-08T07:29:19;12.63;;;4.47;;
3347;SDS011;1687;49.540;8.574;2023-01-08T07:31:45;8.20;;;3.37;;
3347;SDS011;1687;49.540;8.574;2023-01-08T07:34:11;7.90;;;3.73;;
3347;SDS011;1687;49.540;8.574;2023-01-08T07:36:36;8.73;;;3.30;;
3347;SDS011;1687;49.540;8.574;2023-01-08T07:39:02;6.33;;;3.80;;
3347;SDS011;1687;49.540;8.574;2023-01-08T07:41:28;8.50;;;3.73;;
3347;SDS011;1687;49.540;8.574;2023-01-08T07:43:54;4.67;;;2.40;;
3347;SDS011;1687;49.540;8.574;2023-01-08T07:46:19;7.10;;;3.60;;
3347;SDS011;1687;49.540;8.574;2023-01-08T07:48:46;9.33;;;4.07;;
3347;SDS011;1687;49.540;8.574;2023-01-08T07:51:13;10.00;;;3.50;;
3347;SDS011;1687;49.540;8.574;2023-01-08T07:53:39;6.37;;;3.70;;
3347;SDS011;1687;49.540;8.574;2023-01-08T07:56:06;9.40;;;4.33;;
3347;SDS011;1687;49.540;8.574;2023-01-08T07:58:34;9.37;;;3.70;;
3347;SDS011;1687;49.540;8.574;2023-01-08T08:01:02;7.73;;;3.60;;
3347;SDS011;1687;49.540;8.574;2023-01-08T08:03:30;9.87;;;4.87;;
3347;SDS011;1687;49.540;8.574;2023-01-08T08:05:58;9.33;;;4.10;;
3347;SDS011;1687;49.540;8.574;2023-01-08T08:08:25;8.63;;;4.30;;
3347;SDS011;1687;49.540;8.574;2023-01-08T08:10:51;6.83;;;3.90;;
3347;SDS011;1687;49.540;8.574;2023-01-08T08:13:16;12.10;;;4.87;;
3347;SDS011;1687;49.540;8.574;2023-01-08T08:15:42;12.43;;;4.50;;
3347;SDS011;1687;49.540;8.574;2023-01-08T08:18:08;9.70;;;3.80;;
3347;SDS011;1687;49.540;8.574;2023-01-08T08:20:34;11.07;;;5.30;;
3347;SDS011;1687;49.540;8.574;2023-01-08T08:23:01;8.97;;;5.20;;
3347;SDS011;1687;49.540;8.574;2023-01-08T08:25:32;7.80;;;4.47;;
3347;SDS011;1687;49.540;8.574;2023-01-08T08:27:59;10.97;;;4.07;;
3347;SDS011;1687;49.540;8.574;2023-01-08T08:30:27;4.20;;;3.23;;
3347;SDS011;1687;49.540;8.574;2023-01-08T08:32:56;12.53;;;3.43;;
3347;SDS011;1687;49.540;8.574;2023-01-08T08:35:27;4.60;;;3.00;;
3347;SDS011;1687;49.540;8.574;2023-01-08T08:37:55;7.43;;;3.13;;
3347;SDS011;1687;49.540;8.574;2023-01-08T08:40:21;8.70;;;2.93;;
3347;SDS011;1687;49.540;8.574;2023-01-08T08:42:47;6.73;;;3.90;;
3347;SDS011;1687;49.540;8.574;2023-01-08T08:45:13;7.90;;;3.83;;
3347;SDS011;1687;49.540;8.574;2023-01-08T08:47:39;5.50;;;3.40;;
3347;SDS011;1687;49.540;8.574;2023-01-08T08:50:05;5.40;;;2.87;;
3347;SDS011;1687;49.540;8.574;2023-01-08T08:52:32;5.63;;;3.43;;
3347;SDS011;1687;49.540;8.574;2023-01-08T08:54:58;10.60;;;3.90;;
3347;SDS011;1687;49.540;8.574;2023-01-08T08:57:25;7.57;;;3.40;;
3347;SDS011;1687;49.540;8.574;2023-01-08T08:59:51;10.73;;;4.27;;
3347;SDS011;1687;49.540;8.574;2023-01-08T09:02:17;5.10;;;2.93;;
3347;SDS011;1687;49.540;8.574;2023-01-08T09:04:43;13.43;;;4.40;;
3347;SDS011;1687;49.540;8.574;2023-01-08T09:07:09;6.30;;;3.77;;
3347;SDS011;1687;49.540;8.574;2023-01-08T09:09:34;10.07;;;3.53;;
3347;SDS011;1687;49.540;8.574;2023-01-08T09:12:00;8.10;;;3.60;;
3347;SDS011;1687;49.540;8.574;2023-01-08T09:14:26;9.33;;;4.30;;
3347;SDS011;1687;49.540;8.574;2023-01-08T09:16:52;10.73;;;4.87;;
3347;SDS011;1687;49.540;8.574;2023-01-08T09:19:17;6.60;;;4.27;;
3347;SDS011;1687;49.540;8.574;2023-01-08T09:21:43;7.60;;;4.17;;
3347;SDS011;1687;49.540;8.574;2023-01-08T09:24:09;6.93;;;3.10;;
3347;SDS011;1687;49.540;8.574;2023-01-08T09:26:34;24.30;;;4.40;;
3347;SDS011;1687;49.540;8.574;2023-01-08T09:29:00;6.07;;;3.07;;
3347;SDS011;1687;49.540;8.574;2023-01-08T09:31:26;8.43;;;3.33;;
3347;SDS011;1687;49.540;8.574;2023-01-08T09:33:52;7.63;;;3.57;;
3347;SDS011;1687;49.540;8.574;2023-01-08T09:36:17;7.83;;;3.90;;
3347;SDS011;1687;49.540;8.574;2023-01-08T09:38:43;4.20;;;2.50;;
3347;SDS011;1687;49.540;8.574;2023-01-08T09:41:26;11.90;;;3.87;;
3347;SDS011;1687;49.540;8.574;2023-01-08T09:43:56;5.30;;;2.97;;
3347;SDS011;1687;49.540;8.574;2023-01-08T09:46:24;11.17;;;4.13;;
3347;SDS011;1687;49.540;8.574;2023-01-08T09:48:52;7.87;;;4.30;;
3347;SDS011;1687;49.540;8.574;2023-01-08T09:51:32;5.47;;;3.70;;
3347;SDS011;1687;49.540;8.574;2023-01-08T09:54:00;7.03;;;3.73;;
3347;SDS011;1687;49.540;8.574;2023-01-08T09:56:25;7.87;;;3.03;;
3347;SDS011;1687;49.540;8.574;2023-01-08T09:58:53;7.40;;;4.23;;
3347;SDS011;1687;49.540;8.574;2023-01-08T10:01:26;7.57;;;4.13;;
3347;SDS011;1687;49.540;8.574;2023-01-08T10:09:33;7.63;;;4.00;;
3347;SDS011;1687;49.540;8.574;2023-01-08T10:12:00;5.10;;;2.70;;
3347;SDS011;1687;49.540;8.574;2023-01-08T10:14:29;6.00;;;3.17;;
3347;SDS011;1687;49.540;8.574;2023-01-08T10:16:59;10.57;;;3.60;;
3347;SDS011;1687;49.540;8.574;2023-01-08T10:19:51;9.47;;;2.93;;
3347;SDS011;1687;49.540;8.574;2023-01-08T10:22:18;5.00;;;2.67;;
3347;SDS011;1687;49.540;8.574;2023-01-08T10:24:47;7.67;;;3.37;;
3347;SDS011;1687;49.540;8.574;2023-01-08T10:27:15;7.37;;;4.10;;
3347;SDS011;1687;49.540;8.574;2023-01-08T10:29:43;7.63;;;3.50;;
3347;SDS011;1687;49.540;8.574;2023-01-08T10:32:12;5.47;;;2.20;;
3347;SDS011;1687;49.540;8.574;2023-01-08T10:34:50;5.40;;;2.60;;
3347;SDS011;1687;49.540;8.574;2023-01-08T10:37:27;5.23;;;2.90;;
3347;SDS011;1687;49.540;8.574;2023-01-08T10:42:55;9.00;;;3.20;;
3347;SDS011;1687;49.540;8.574;2023-01-08T10:45:29;5.00;;;2.77;;
3347;SDS011;1687;49.540;8.574;2023-01-08T10:47:57;7.83;;;3.70;;
3347;SDS011;1687;49.540;8.574;2023-01-08T10:50:30;5.10;;;2.70;;
3347;SDS011;1687;49.540;8.574;2023-01-08T10:52:59;6.73;;;3.83;;
3347;SDS011;1687;49.540;8.574;2023-01-08T10:58:03;8.33;;;3.13;;
3347;SDS011;1687;49.540;8.574;2023-01-08T11:00:33;4.80;;;3.03;;
3347;SDS011;1687;49.540;8.574;2023-01-08T11:03:14;7.10;;;2.73;;
3347;SDS011;1687;49.540;8.574;2023-01-08T11:05:56;8.37;;;3.40;;
3347;SDS011;1687;49.540;8.574;2023-01-08T11:08:22;4.37;;;2.30;;
3347;SDS011;1687;49.540;8.574;2023-01-08T11:10:53;3.17;;;2.00;;
3347;SDS011;1687;49.540;8.574;2023-01-08T11:13:24;3.40;;;2.03;;
3347;SDS011;1687;49.540;8.574;2023-01-08T11:16:03;3.80;;;1.90;;
3347;SDS011;1687;49.540;8.574;2023-01-08T11:18:41;2.60;;;1.60;;
3347;SDS011;1687;49.540;8.574;2023-01-08T11:21:24;4.70;;;2.10;;
3347;SDS011;1687;49.540;8.574;2023-01-08T11:24:14;5.90;;;1.40;;
3347;SDS011;1687;49.540;8.574;2023-01-08T11:29:39;18.97;;;2.13;;
3347;SDS011;1687;49.540;8.574;2023-01-08T11:35:35;3.80;;;2.00;;
3347;SDS011;1687;49.540;8.574;2023-01-08T11:38:12;5.53;;;2.67;;
3347;SDS011;1687;49.540;8.574;2023-01-08T11:40:52;4.67;;;2.23;;
3347;SDS011;1687;49.540;8.574;2023-01-08T12:01:45;4.50;;;2.33;;
3347;SDS011;1687;49.540;8.574;2023-01-08T12:04:27;5.33;;;2.27;;
3347;SDS011;1687;49.540;8.574;2023-01-08T12:10:29;4.70;;;2.57;;
3347;SDS011;1687;49.540;8.574;2023-01-08T12:13:01;4.10;;;2.10;;
3347;SDS011;1687;49.540;8.574;2023-01-08T12:19:09;2.13;;;1.27;;
3347;SDS011;1687;49.540;8.574;2023-01-08T12:24:48;6.73;;;2.47;;
3347;SDS011;1687;49.540;8.574;2023-01-08T12:30:54;2.70;;;1.50;;
3347;SDS011;1687;49.540;8.574;2023-01-08T12:33:57;4.23;;;2.00;;
3347;SDS011;1687;49.540;8.574;2023-01-08T12:36:43;3.40;;;2.23;;
3347;SDS011;1687;49.540;8.574;2023-01-08T12:39:23;8.70;;;2.27;;
3347;SDS011;1687;49.540;8.574;2023-01-08T12:42:05;7.17;;;2.70;;
3347;SDS011;1687;49.540;8.574;2023-01-08T12:44:38;7.00;;;2.23;;
3347;SDS011;1687;49.540;8.574;2023-01-08T12:47:05;8.63;;;3.10;;
3347;SDS011;1687;49.540;8.574;2023-01-08T12:49:42;3.67;;;1.93;;
3347;SDS011;1687;49.540;8.574;2023-01-08T12:52:17;3.53;;;1.90;;
3347;SDS011;1687;49.540;8.574;2023-01-08T12:55:03;2.80;;;1.80;;
3347;SDS011;1687;49.540;8.574;2023-01-08T12:57:56;5.67;;;1.80;;
3347;SDS011;1687;49.540;8.574;2023-01-08T13:00:36;3.50;;;1.50;;
3347;SDS011;1687;49.540;8.574;2023-01-08T13:03:09;6.20;;;1.70;;
3347;SDS011;1687;49.540;8.574;2023-01-08T13:05:41;5.97;;;2.13;;
3347;SDS011;1687;49.540;8.574;2023-01-08T13:08:23;5.67;;;2.80;;
3347;SDS011;1687;49.540;8.574;2023-01-08T13:10:59;6.60;;;3.53;;
3347;SDS011;1687;49.540;8.574;2023-01-08T13:18:39;6.93;;;2.10;;
3347;SDS011;1687;49.540;8.574;2023-01-08T13:21:07;3.90;;;1.60;;
3347;SDS011;1687;49.540;8.574;2023-01-08T13:23:35;2.93;;;2.00;;
3347;SDS011;1687;49.540;8.574;2023-01-08T13:26:03;7.47;;;2.70;;
3347;SDS011;1687;49.540;8.574;2023-01-08T13:31:12;3.70;;;1.97;;
3347;SDS011;1687;49.540;8.574;2023-01-08T13:33:51;8.13;;;1.97;;
3347;SDS011;1687;49.540;8.574;2023-01-08T13:36:25;2.30;;;1.50;;
3347;SDS011;1687;49.540;8.574;2023-01-08T13:38:59;6.50;;;3.30;;
3347;SDS011;1687;49.540;8.574;2023-01-08T13:41:31;4.87;;;1.80;;
3347;SDS011;1687;49.540;8.574;2023-01-08T13:44:15;3.77;;;2.03;;
3347;SDS011;1687;49.540;8.574;2023-01-08T13:46:55;4.10;;;2.03;;
3347;SDS011;1687;49.540;8.574;2023-01-08T13:52:24;4.60;;;1.83;;
3347;SDS011;1687;49.540;8.574;2023-01-08T13:54:56;7.80;;;2.40;;
3347;SDS011;1687;49.540;8.574;2023-01-08T13:57:30;2.63;;;1.70;;
3347;SDS011;1687;49.540;8.574;2023-01-08T14:00:03;5.87;;;1.67;;
3347;SDS011;1687;49.540;8.574;2023-01-08T14:02:40;3.97;;;2.27;;
3347;SDS011;1687;49.540;8.574;2023-01-08T14:05:17;3.67;;;1.80;;
3347;SDS011;1687;49.540;8.574;2023-01-08T14:07:46;2.70;;;1.73;;
3347;SDS011;1687;49.540;8.574;2023-01-08T14:10:12;4.90;;;2.17;;
3347;SDS011;1687;49.540;8.574;2023-01-08T14:12:39;4.23;;;1.77;;
3347;SDS011;1687;49.540;8.574;2023-01-08T14:15:09;4.30;;;2.23;;
3347;SDS011;1687;49.540;8.574;2023-01-08T14:17:49;7.03;;;1.90;;
3347;SDS011;1687;49.540;8.574;2023-01-08T14:20:20;5.10;;;2.07;;
3347;SDS011;1687;49.540;8.574;2023-01-08T14:23:00;5.23;;;2.27;;
3347;SDS011;1687;49.540;8.574;2023-01-08T14:25:26;4.67;;;1.93;;
3347;SDS011;1687;49.540;8.574;2023-01-08T14:28:00;3.57;;;1.77;;
3347;SDS011;1687;49.540;8.574;2023-01-08T14:30:29;5.07;;;2.50;;
3347;SDS011;1687;49.540;8.574;2023-01-08T14:32:56;3.83;;;2.47;;
3347;SDS011;1687;49.540;8.574;2023-01-08T14:35:28;4.10;;;2.13;;
3347;SDS011;1687;49.540;8.574;2023-01-08T14:37:57;3.70;;;1.63;;
3347;SDS011;1687;49.540;8.574;2023-01-08T14:40:29;3.00;;;1.93;;
3347;SDS011;1687;49.540;8.574;2023-01-08T14:43:05;4.87;;;2.07;;
3347;SDS011;1687;49.540;8.574;2023-01-08T14:45:44;7.63;;;1.97;;
3347;SDS011;1687;49.540;8.574;2023-01-08T14:48:17;4.40;;;2.10;;
3347;SDS011;1687;49.540;8.574;2023-01-08T14:50:44;5.30;;;2.20;;
3347;SDS011;1687;49.540;8.574;2023-01-08T14:53:45;3.40;;;2.17;;
3347;SDS011;1687;49.540;8.574;2023-01-08T14:56:16;6.17;;;2.00;;
3347;SDS011;1687;49.540;8.574;2023-01-08T14:58:48;4.20;;;2.50;;
3347;SDS011;1687;49.540;8.574;2023-01-08T15:01:16;3.83;;;2.00;;
3347;SDS011;1687;49.540;8.574;2023-01-08T15:03:49;3.90;;;1.50;;
3347;SDS011;1687;49.540;8.574;2023-01-08T15:06:26;3.20;;;1.70;;
3347;SDS011;1687;49.540;8.574;2023-01-08T15:08:55;2.27;;;1.27;;
3347;SDS011;1687;49.540;8.574;2023-01-08T15:11:22;5.70;;;1.87;;
3347;SDS011;1687;49.540;8.574;2023-01-08T15:13:49;4.50;;;2.00;;
3347;SDS011;1687;49.540;8.574;2023-01-08T15:19:01;6.17;;;1.97;;
3347;SDS011;1687;49.540;8.574;2023-01-08T15:21:29;10.13;;;2.67;;
3347;SDS011;1687;49.540;8.574;2023-01-08T15:23:55;3.03;;;1.90;;
3347;SDS011;1687;49.540;8.574;2023-01-08T15:26:24;4.10;;;1.93;;
3347;SDS011;1687;49.540;8.574;2023-01-08T15:28:55;5.20;;;2.97;;
3347;SDS011;1687;49.540;8.574;2023-01-08T15:31:28;4.10;;;2.30;;
3347;SDS011;1687;49.540;8.574;2023-01-08T15:33:56;3.37;;;2.30;;
3347;SDS011;1687;49.540;8.574;2023-01-08T15:36:23;2.37;;;1.37;;
3347;SDS011;1687;49.540;8.574;2023-01-08T15:38:50;3.43;;;1.73;;
3347;SDS011;1687;49.540;8.574;2023-01-08T15:41:17;4.60;;;1.87;;
3347;SDS011;1687;49.540;8.574;2023-01-08T15:44:06;4.13;;;1.23;;
3347;SDS011;1687;49.540;8.574;2023-01-08T15:46:34;3.93;;;1.30;;
3347;SDS011;1687;49.540;8.574;2023-01-08T15:48:59;3.43;;;1.30;;
3347;SDS011;1687;49.540;8.574;2023-01-08T15:51:25;4.80;;;1.40;;
3347;SDS011;1687;49.540;8.574;2023-01-08T15:53:55;1.93;;;1.17;;
3347;SDS011;1687;49.540;8.574;2023-01-08T15:56:20;3.90;;;2.20;;
3347;SDS011;1687;49.540;8.574;2023-01-08T15:58:46;3.07;;;1.23;;
3347;SDS011;1687;49.540;8.574;2023-01-08T16:01:12;2.70;;;1.70;;
3347;SDS011;1687;49.540;8.574;2023-01-08T16:03:37;3.77;;;1.53;;
3347;SDS011;1687;49.540;8.574;2023-01-08T16:06:06;1.97;;;1.00;;
3347;SDS011;1687;49.540;8.574;2023-01-08T16:08:32;2.20;;;1.20;;
3347;SDS011;1687;49.540;8.574;2023-01-08T16:10:58;2.17;;;1.20;;
3347;SDS011;1687;49.540;8.574;2023-01-08T16:13:24;3.70;;;1.90;;
3347;SDS011;1687;49.540;8.574;2023-01-08T16:15:49;3.00;;;1.83;;
3347;SDS011;1687;49.540;8.574;2023-01-08T16:18:15;3.27;;;1.70;;
3347;SDS011;1687;49.540;8.574;2023-01-08T16:20:41;3.73;;;1.57;;
3347;SDS011;1687;49.540;8.574;2023-01-08T16:23:06;2.80;;;1.23;;
3347;SDS011;1687;49.540;8.574;2023-01-08T16:25:32;2.50;;;1.17;;
3347;SDS011;1687;49.540;8.574;2023-01-08T16:27:58;6.27;;;2.70;;
3347;SDS011;1687;49.540;8.574;2023-01-08T16:30:23;4.97;;;2.70;;
3347;SDS011;1687;49.540;8.574;2023-01-08T16:32:52;8.47;;;3.53;;
3347;SDS011;1687;49.540;8.574;2023-01-08T16:35:19;5.77;;;2.87;;
3347;SDS011;1687;49.540;8.574;2023-01-08T16:37:45;8.63;;;3.40;;
3347;SDS011;1687;49.540;8.574;2023-01-08T16:40:11;4.60;;;2.90;;
3347;SDS011;1687;49.540;8.574;2023-01-08T16:42:38;13.53;;;3.03;;
3347;SDS011;1687;49.540;8.574;2023-01-08T16:45:04;4.10;;;2.50;;
3347;SDS011;1687;49.540;8.574;2023-01-08T16:47:35;6.70;;;2.17;;
3347;SDS011;1687;49.540;8.574;2023-01-08T16:50:02;3.60;;;1.63;;
3347;SDS011;1687;49.540;8.574;2023-01-08T16:52:29;4.90;;;2.60;;
3347;SDS011;1687;49.540;8.574;2023-01-08T16:54:55;4.30;;;3.23;;
3347;SDS011;1687;49.540;8.574;2023-01-08T16:57:21;7.03;;;3.07;;
3347;SDS011;1687;49.540;8.574;2023-01-08T16:59:47;4.83;;;2.37;;
3347;SDS011;1687;49.540;8.574;2023-01-08T17:02:13;5.53;;;2.67;;
3347;SDS011;1687;49.540;8.574;2023-01-08T17:04:38;7.40;;;3.03;;